Indian, Virginia
Current Conditions -  °F | °C
As of 5:35 PM on Wednesday 22 Oct 2014 (Local Time) from KJFZ Reporting Station
Overcast Overcast  
Wind Chill: 40°   Ceiling: 600
Heat Index: 45°   Visibility: 7mi
Dew Point: 42°   Wind: 9mph
Humidity: 90%   Direction: 330°NNW
Pressure: 30.18"   Gusts: NA
Location:  37.0714°N, 81.7762°W
Report Text: KJFZ 222135Z AUTO 33008KT 7SM BKN006 BKN012 OVC018 07/06 A3018 RMK AO2 T00720056
Loading
Personal Weather Stations






























Interactive Weather Map
Tropical Storm Tracking
New forecast layout! Learn more

10-Day Weather Forecast

Advertisements
Track Severe Weather on mobile